createdAt,value
2023-05-08T00:00:17.218Z,7.90
2023-05-08T00:02:44.176Z,7.90
2023-05-08T00:05:11.117Z,6.40
2023-05-08T00:07:38.109Z,5.70
2023-05-08T00:10:05.434Z,5.70
2023-05-08T00:12:32.193Z,7.20
2023-05-08T00:14:59.032Z,7.10
2023-05-08T00:17:25.874Z,11.40
2023-05-08T00:19:53.105Z,8.10
2023-05-08T00:22:19.949Z,4.70
2023-05-08T00:24:46.746Z,11.60
2023-05-08T00:27:13.510Z,6.10
2023-05-08T00:29:43.381Z,5.70
2023-05-08T00:32:10.246Z,7.40
2023-05-08T00:34:37.015Z,4.70
2023-05-08T00:37:04.214Z,7.20
2023-05-08T00:39:31.073Z,15.10
2023-05-08T00:41:58.001Z,7.30
2023-05-08T00:44:24.756Z,4.90
2023-05-08T00:46:51.531Z,5.40
2023-05-08T00:49:18.357Z,7.30
2023-05-08T00:51:49.350Z,7.30
2023-05-08T00:54:16.803Z,5.40
2023-05-08T00:56:43.617Z,5.40
2023-05-08T00:59:11.608Z,5.80
2023-05-08T01:01:38.734Z,6.00
2023-05-08T01:04:05.712Z,6.20
2023-05-08T01:06:32.482Z,8.10
2023-05-08T01:08:59.322Z,9.80
2023-05-08T01:11:31.334Z,4.90
2023-05-08T01:16:25.015Z,6.60
2023-05-08T01:18:54.966Z,4.60
2023-05-08T01:21:21.716Z,5.90
2023-05-08T01:23:48.545Z,7.00
2023-05-08T01:26:15.436Z,13.10
2023-05-08T01:29:01.389Z,8.10
2023-05-08T01:31:43.391Z,7.60
2023-05-08T01:36:37.771Z,9.40
2023-05-08T01:39:24.797Z,10.60
2023-05-08T01:41:58.664Z,6.20
2023-05-08T01:44:27.619Z,6.80
2023-05-08T01:46:54.488Z,4.50
2023-05-08T01:49:21.236Z,6.90
2023-05-08T01:51:53.754Z,6.00
2023-05-08T01:54:22.545Z,10.20
2023-05-08T01:56:49.358Z,5.10
2023-05-08T01:59:17.202Z,4.90
2023-05-08T02:01:44.260Z,4.90
2023-05-08T02:04:11.076Z,8.70
2023-05-08T02:06:38.075Z,10.40
2023-05-08T02:09:06.685Z,6.30
2023-05-08T02:11:33.563Z,6.00
2023-05-08T02:14:01.684Z,6.80
2023-05-08T02:16:29.330Z,10.80
2023-05-08T02:18:56.399Z,5.60
2023-05-08T02:21:23.772Z,5.00
2023-05-08T02:23:50.683Z,4.80
2023-05-08T02:26:17.439Z,4.70
2023-05-08T02:28:44.221Z,6.80
2023-05-08T02:31:11.558Z,5.40
2023-05-08T02:33:41.809Z,6.20
2023-05-08T02:36:08.787Z,5.20
2023-05-08T02:38:35.717Z,7.10
2023-05-08T02:41:02.599Z,10.10
2023-05-08T02:43:29.590Z,6.00
2023-05-08T02:46:01.888Z,5.80
2023-05-08T02:48:28.780Z,14.70
2023-05-08T02:50:57.658Z,7.90
2023-05-08T02:53:44.834Z,6.20
2023-05-08T02:56:14.116Z,7.00
2023-05-08T02:58:42.905Z,11.20
2023-05-08T03:01:24.564Z,11.40
2023-05-08T03:03:59.423Z,6.20
2023-05-08T03:06:26.306Z,9.20
2023-05-08T03:08:53.159Z,11.20
2023-05-08T03:11:21.794Z,5.60
2023-05-08T03:13:48.598Z,5.80
2023-05-08T03:16:16.686Z,7.50
2023-05-08T03:18:45.614Z,4.60
2023-05-08T03:21:13.229Z,6.30
2023-05-08T03:23:40.193Z,6.30
2023-05-08T03:26:07.166Z,8.20
2023-05-08T03:28:35.104Z,6.90
2023-05-08T03:31:02.943Z,9.70
2023-05-08T03:33:29.818Z,9.10
2023-05-08T03:35:58.223Z,12.10
2023-05-08T03:38:24.985Z,8.00
2023-05-08T03:40:51.903Z,8.50
2023-05-08T03:43:19.516Z,5.80
2023-05-08T03:45:46.548Z,9.30
2023-05-08T03:48:13.890Z,8.20
2023-05-08T03:50:41.480Z,5.10
2023-05-08T03:53:09.845Z,7.80
2023-05-08T03:55:37.213Z,5.00
2023-05-08T03:58:15.450Z,6.80
2023-05-08T04:00:42.568Z,5.40
2023-05-08T04:03:12.196Z,7.50
2023-05-08T04:05:43.599Z,5.80
2023-05-08T04:08:15.908Z,6.50
2023-05-08T04:10:44.547Z,10.00
2023-05-08T04:13:15.506Z,5.50
2023-05-08T04:15:48.953Z,5.20
2023-05-08T04:18:17.286Z,7.00
2023-05-08T04:20:46.291Z,5.80
2023-05-08T04:23:14.353Z,11.80
2023-05-08T04:25:41.294Z,6.80
2023-05-08T04:28:08.822Z,6.80
2023-05-08T04:30:36.389Z,10.20
2023-05-08T04:33:06.815Z,6.70
2023-05-08T04:35:34.580Z,12.40
2023-05-08T04:38:02.363Z,5.30
2023-05-08T04:40:29.395Z,6.30
2023-05-08T04:42:57.018Z,7.60
2023-05-08T04:45:24.297Z,7.20
2023-05-08T04:47:51.141Z,6.10
2023-05-08T04:50:18.105Z,9.70
2023-05-08T04:52:45.025Z,7.10
2023-05-08T04:55:12.012Z,7.20
2023-05-08T04:57:40.268Z,9.80
2023-05-08T05:00:10.167Z,9.60
2023-05-08T05:02:39.567Z,7.00
2023-05-08T05:05:06.983Z,6.20
2023-05-08T05:07:33.967Z,5.40
2023-05-08T05:10:03.183Z,5.10
2023-05-08T05:12:33.154Z,6.80
2023-05-08T05:15:00.407Z,5.40
2023-05-08T05:17:28.221Z,8.10
2023-05-08T05:19:56.213Z,5.40
2023-05-08T05:22:23.239Z,8.50
2023-05-08T05:24:50.070Z,6.70
2023-05-08T05:27:19.920Z,6.90
2023-05-08T05:29:48.237Z,11.10
2023-05-08T05:32:15.301Z,4.50
2023-05-08T05:34:42.480Z,8.80
2023-05-08T05:37:09.537Z,8.10
2023-05-08T05:39:37.919Z,6.80
2023-05-08T05:42:04.872Z,8.70
2023-05-08T05:44:31.795Z,7.80
2023-05-08T05:46:58.650Z,6.00
2023-05-08T05:49:25.815Z,10.50
2023-05-08T05:51:53.137Z,20.50
2023-05-08T05:54:20.054Z,19.10
2023-05-08T05:56:46.867Z,15.60
2023-05-08T05:59:13.638Z,11.30
2023-05-08T06:01:41.691Z,8.40
2023-05-08T06:04:08.652Z,11.70
2023-05-08T06:06:35.470Z,15.70
2023-05-08T06:09:04.431Z,8.00
2023-05-08T06:11:31.439Z,8.90
2023-05-08T06:13:58.232Z,7.30
2023-05-08T06:16:25.151Z,11.60
2023-05-08T06:18:52.085Z,6.60
2023-05-08T06:21:18.879Z,6.70
2023-05-08T06:23:46.150Z,12.90
2023-05-08T06:26:12.920Z,13.30
2023-05-08T06:28:39.705Z,10.60
2023-05-08T06:31:08.317Z,9.90
2023-05-08T06:33:35.193Z,10.50
2023-05-08T06:36:02.033Z,7.30
2023-05-08T06:38:28.968Z,7.80
2023-05-08T06:40:55.794Z,9.70
2023-05-08T06:43:22.675Z,8.70
2023-05-08T06:45:49.545Z,8.40
2023-05-08T06:48:16.378Z,11.80
2023-05-08T06:50:43.441Z,10.40
2023-05-08T06:53:10.328Z,9.60
2023-05-08T06:55:37.062Z,9.10
2023-05-08T06:58:04.043Z,8.60
2023-05-08T07:00:31.052Z,11.70
2023-05-08T07:02:57.877Z,11.10
2023-05-08T07:05:24.757Z,10.90
2023-05-08T07:07:54.123Z,7.10
2023-05-08T07:10:24.090Z,11.50
2023-05-08T07:12:51.294Z,21.40
2023-05-08T07:15:26.094Z,9.90
2023-05-08T07:17:53.641Z,8.20
2023-05-08T07:20:21.698Z,10.40
2023-05-08T07:22:48.728Z,7.10
2023-05-08T07:25:16.200Z,7.20
2023-05-08T07:27:42.993Z,8.70
2023-05-08T07:30:09.988Z,9.40
2023-05-08T07:32:38.720Z,7.20
2023-05-08T07:35:09.718Z,7.80
2023-05-08T07:37:37.318Z,10.40
2023-05-08T07:40:04.205Z,9.40
2023-05-08T07:42:31.054Z,8.50
2023-05-08T07:44:57.900Z,6.20
2023-05-08T07:47:24.793Z,7.40
2023-05-08T07:49:51.629Z,6.90
2023-05-08T07:52:18.432Z,7.00
2023-05-08T07:54:45.259Z,17.40
2023-05-08T07:57:12.075Z,7.50
2023-05-08T07:59:38.874Z,7.30
2023-05-08T08:02:05.703Z,5.00
2023-05-08T08:04:32.627Z,8.80
2023-05-08T08:06:59.541Z,6.80
2023-05-08T08:09:26.428Z,10.60
2023-05-08T08:11:53.248Z,8.30
2023-05-08T08:14:19.971Z,6.40
2023-05-08T08:16:46.871Z,10.40
2023-05-08T08:19:13.881Z,6.90
2023-05-08T08:21:44.102Z,6.80
2023-05-08T08:24:10.926Z,6.50
2023-05-08T08:26:37.803Z,8.30
2023-05-08T08:29:04.767Z,7.50
2023-05-08T08:31:31.664Z,9.60
2023-05-08T08:33:58.645Z,5.90
2023-05-08T08:36:25.406Z,7.70
2023-05-08T08:38:52.686Z,7.90
2023-05-08T08:41:19.467Z,14.80
2023-05-08T08:43:46.411Z,11.10
2023-05-08T08:46:15.231Z,8.30
2023-05-08T08:48:45.797Z,8.20
2023-05-08T08:51:14.533Z,7.90
2023-05-08T08:53:43.044Z,7.40
2023-05-08T08:56:09.849Z,13.90
2023-05-08T08:58:48.095Z,7.90
2023-05-08T09:01:16.593Z,5.40
2023-05-08T09:03:44.210Z,9.10
2023-05-08T09:06:11.756Z,8.40
2023-05-08T09:08:38.609Z,6.60
2023-05-08T09:11:05.445Z,6.30
2023-05-08T09:13:32.611Z,5.50
2023-05-08T09:15:59.739Z,7.80
2023-05-08T09:18:26.850Z,6.90
2023-05-08T09:20:53.874Z,10.20
2023-05-08T09:23:20.808Z,6.00
2023-05-08T09:25:48.689Z,5.10
2023-05-08T09:28:16.629Z,7.80
2023-05-08T09:30:52.472Z,5.40
2023-05-08T09:33:22.122Z,10.60
2023-05-08T09:35:48.979Z,7.70
2023-05-08T09:38:35.220Z,5.40
2023-05-08T09:41:08.786Z,6.20
2023-05-08T09:43:35.782Z,6.70
2023-05-08T09:46:17.657Z,6.30
2023-05-08T09:51:12.671Z,9.20
2023-05-08T09:53:42.371Z,8.40
2023-05-08T09:56:09.765Z,7.50
2023-05-08T09:58:40.676Z,7.20
2023-05-08T10:01:08.159Z,7.30
2023-05-08T10:03:48.162Z,7.00
2023-05-08T10:06:15.320Z,5.70
2023-05-08T10:08:42.280Z,4.50
2023-05-08T10:11:18.480Z,7.50
2023-05-08T10:13:45.478Z,7.90
2023-05-08T10:16:16.308Z,5.10
2023-05-08T10:18:49.541Z,5.70
2023-05-08T10:21:16.658Z,5.90
2023-05-08T10:23:43.803Z,5.30
2023-05-08T10:26:14.630Z,7.70
2023-05-08T10:28:51.217Z,8.40
2023-05-08T10:31:18.370Z,7.00
2023-05-08T10:33:45.703Z,7.60
2023-05-08T10:36:13.376Z,6.60
2023-05-08T10:38:40.200Z,6.40
2023-05-08T10:41:07.923Z,10.50
2023-05-08T10:43:34.716Z,4.60
2023-05-08T10:46:02.697Z,6.30
2023-05-08T10:48:32.762Z,4.50
2023-05-08T10:50:59.614Z,10.30
2023-05-08T10:53:26.389Z,7.70
2023-05-08T10:55:53.179Z,6.30
2023-05-08T10:58:23.418Z,8.80
2023-05-08T11:01:07.948Z,6.80
2023-05-08T11:03:39.061Z,6.50
2023-05-08T11:06:06.065Z,6.70
2023-05-08T11:08:32.896Z,11.30
2023-05-08T11:11:04.986Z,5.30
2023-05-08T11:13:35.847Z,10.60
2023-05-08T11:16:03.851Z,5.60
2023-05-08T11:18:45.660Z,8.30
2023-05-08T11:21:15.876Z,4.80
2023-05-08T11:23:42.743Z,4.90
2023-05-08T11:26:13.271Z,8.50
2023-05-08T11:28:40.780Z,7.90
2023-05-08T11:31:08.468Z,5.20
2023-05-08T11:33:39.015Z,10.10
2023-05-08T11:36:13.185Z,11.60
2023-05-08T11:38:40.358Z,14.30
2023-05-08T11:41:10.948Z,5.00
2023-05-08T11:43:48.451Z,9.60
2023-05-08T11:46:19.629Z,4.60
2023-05-08T11:48:46.551Z,8.20
2023-05-08T11:51:19.313Z,9.80
2023-05-08T11:53:47.752Z,7.50
2023-05-08T11:56:15.415Z,9.10
2023-05-08T11:58:42.165Z,7.30
2023-05-08T12:01:09.472Z,6.80
2023-05-08T12:03:36.479Z,7.00
2023-05-08T12:06:03.560Z,7.20
2023-05-08T12:08:30.419Z,11.00
2023-05-08T12:10:57.516Z,11.40
2023-05-08T12:13:28.219Z,5.90
2023-05-08T12:15:55.690Z,8.00
2023-05-08T12:18:22.774Z,7.00
2023-05-08T12:20:53.310Z,12.30
2023-05-08T12:23:20.252Z,6.60
2023-05-08T12:25:47.213Z,13.70
2023-05-08T12:28:14.611Z,8.40
2023-05-08T12:30:41.520Z,6.90
2023-05-08T12:33:08.601Z,16.10
2023-05-08T12:35:35.563Z,15.10
2023-05-08T12:38:03.652Z,11.80
2023-05-08T12:40:33.345Z,8.90
2023-05-08T12:43:01.153Z,22.70
2023-05-08T12:45:29.156Z,6.20
2023-05-08T12:48:00.094Z,8.90
2023-05-08T12:50:27.042Z,8.90
2023-05-08T12:52:54.138Z,8.90
2023-05-08T12:55:21.288Z,9.20
2023-05-08T12:57:48.747Z,8.40
2023-05-08T13:00:18.683Z,12.60
2023-05-08T13:02:54.892Z,7.70
2023-05-08T13:05:22.381Z,8.70
2023-05-08T13:07:51.624Z,7.20
2023-05-08T13:10:23.592Z,8.80
2023-05-08T13:12:52.426Z,6.90
2023-05-08T13:15:19.401Z,11.10
2023-05-08T13:17:46.301Z,13.40
2023-05-08T13:20:13.368Z,6.50
2023-05-08T13:22:40.776Z,8.20
2023-05-08T13:25:09.179Z,5.50
2023-05-08T13:27:36.068Z,5.30
2023-05-08T13:30:03.072Z,12.30
2023-05-08T13:32:30.720Z,6.00
2023-05-08T13:35:00.803Z,5.80
2023-05-08T13:37:30.128Z,6.10
2023-05-08T13:39:56.942Z,7.30
2023-05-08T13:42:23.814Z,5.30
2023-05-08T13:44:50.872Z,5.90
2023-05-08T13:47:17.736Z,7.60
2023-05-08T13:49:47.048Z,9.10
2023-05-08T13:52:14.072Z,4.50
2023-05-08T13:54:41.097Z,9.90
2023-05-08T13:57:08.390Z,7.60
2023-05-08T13:59:35.486Z,7.90
2023-05-08T14:02:02.553Z,3.30
2023-05-08T14:04:29.577Z,4.80
2023-05-08T14:06:56.632Z,14.00
2023-05-08T14:09:24.185Z,29.40
2023-05-08T14:11:51.117Z,63.90
2023-05-08T14:14:17.899Z,26.30
2023-05-08T14:16:44.650Z,17.20
2023-05-08T14:19:11.375Z,37.80
2023-05-08T14:21:38.310Z,6.80
2023-05-08T14:24:05.554Z,4.60
2023-05-08T14:26:32.549Z,15.00
2023-05-08T14:28:59.730Z,9.30
2023-05-08T14:31:26.499Z,4.30
2023-05-08T14:33:53.280Z,17.70
2023-05-08T14:36:20.459Z,59.90
2023-05-08T14:38:47.492Z,28.20
2023-05-08T14:41:14.334Z,6.10
2023-05-08T14:43:42.847Z,14.80
2023-05-08T14:46:09.686Z,48.50
2023-05-08T14:48:36.531Z,20.70
2023-05-08T14:51:03.383Z,16.10
2023-05-08T14:53:30.404Z,14.00
2023-05-08T14:56:00.255Z,17.70
2023-05-08T14:58:27.345Z,11.10
2023-05-08T15:00:54.137Z,18.20
2023-05-08T15:03:21.857Z,14.40
2023-05-08T15:05:48.939Z,5.40
2023-05-08T15:08:15.820Z,9.40
2023-05-08T15:10:42.734Z,15.80
2023-05-08T15:13:09.726Z,5.30
2023-05-08T15:15:36.606Z,5.10
2023-05-08T15:18:04.813Z,17.60
2023-05-08T15:20:31.627Z,17.60
2023-05-08T15:22:58.501Z,13.90
2023-05-08T15:25:27.278Z,17.00
2023-05-08T15:27:54.715Z,9.20
2023-05-08T15:30:21.872Z,7.60
2023-05-08T15:32:48.921Z,8.40
2023-05-08T15:35:16.187Z,16.80
2023-05-08T15:37:43.154Z,15.70
2023-05-08T15:40:10.169Z,10.90
2023-05-08T15:42:36.988Z,7.70
2023-05-08T15:45:04.609Z,40.20
2023-05-08T15:47:31.756Z,13.00
2023-05-08T15:50:14.934Z,10.90
2023-05-08T15:52:42.012Z,9.20
2023-05-08T15:55:09.080Z,12.30
2023-05-08T15:57:43.649Z,8.60
2023-05-08T16:00:20.074Z,7.70
2023-05-08T16:02:53.612Z,6.30
2023-05-08T16:05:20.537Z,10.80
2023-05-08T16:07:53.729Z,4.50
2023-05-08T16:10:23.685Z,11.60
2023-05-08T16:12:50.681Z,6.50
2023-05-08T16:15:22.777Z,5.50
2023-05-08T16:18:19.980Z,12.60
2023-05-08T16:20:48.604Z,8.90
2023-05-08T16:23:15.481Z,16.00
2023-05-08T16:25:43.123Z,16.90
2023-05-08T16:28:10.001Z,12.30
2023-05-08T16:33:54.548Z,12.20
2023-05-08T16:36:24.288Z,8.10
2023-05-08T16:38:57.557Z,16.10
2023-05-08T16:41:30.725Z,8.80
2023-05-08T16:44:09.602Z,9.70
2023-05-08T16:53:44.919Z,9.40
2023-05-08T16:56:12.730Z,11.90
2023-05-08T16:58:43.212Z,23.10
2023-05-08T17:01:21.916Z,9.00
2023-05-08T17:04:13.667Z,12.40
2023-05-08T17:06:53.799Z,9.30
2023-05-08T17:09:20.964Z,13.90
2023-05-08T17:11:47.855Z,11.10
2023-05-08T17:14:14.661Z,14.30
2023-05-08T17:16:41.603Z,11.10
2023-05-08T17:19:08.597Z,15.10
2023-05-08T17:21:38.388Z,13.00
2023-05-08T17:24:06.466Z,15.50
2023-05-08T17:26:33.752Z,14.10
2023-05-08T17:29:00.888Z,9.50
2023-05-08T17:31:30.578Z,13.90
2023-05-08T17:33:57.617Z,16.60
2023-05-08T17:36:24.596Z,11.20
2023-05-08T17:38:52.069Z,12.10
2023-05-08T17:41:18.852Z,12.90
2023-05-08T17:43:45.722Z,21.60
2023-05-08T17:46:12.606Z,10.00
2023-05-08T17:48:39.698Z,15.80
2023-05-08T17:51:15.920Z,11.80
2023-05-08T17:53:42.909Z,15.30
2023-05-08T17:56:09.898Z,18.30
2023-05-08T17:58:36.695Z,11.70
2023-05-08T18:01:03.752Z,14.40
2023-05-08T18:03:31.972Z,15.60
2023-05-08T18:05:58.906Z,13.50
2023-05-08T18:08:25.781Z,14.20
2023-05-08T18:10:52.728Z,10.20
2023-05-08T18:13:19.676Z,14.10
2023-05-08T18:15:46.735Z,11.40
2023-05-08T18:18:15.104Z,11.40
2023-05-08T18:20:42.151Z,21.60
2023-05-08T18:23:09.106Z,25.40
2023-05-08T18:25:36.374Z,19.20
2023-05-08T18:28:03.437Z,16.90
2023-05-08T18:30:31.775Z,25.90
2023-05-08T18:35:39.141Z,25.10
2023-05-08T18:38:06.083Z,26.00
2023-05-08T18:40:33.041Z,22.60
2023-05-08T18:43:00.041Z,28.00
2023-05-08T18:45:26.965Z,26.40
2023-05-08T18:47:57.217Z,22.20
2023-05-08T18:50:27.466Z,32.40
2023-05-08T18:52:55.867Z,23.20
2023-05-08T18:55:27.727Z,19.20
2023-05-08T19:00:22.148Z,27.70
2023-05-08T19:02:48.991Z,18.50
2023-05-08T19:05:16.899Z,17.30
2023-05-08T19:07:43.832Z,24.50
2023-05-08T19:10:10.840Z,19.40
2023-05-08T19:12:37.793Z,20.30
2023-05-08T19:15:04.758Z,15.90
2023-05-08T19:17:32.694Z,18.40
2023-05-08T19:19:59.891Z,14.90
2023-05-08T19:22:26.776Z,19.40
2023-05-08T19:24:53.685Z,20.20
2023-05-08T19:27:20.797Z,16.30
2023-05-08T19:29:47.710Z,16.50
2023-05-08T19:32:15.467Z,13.70
2023-05-08T19:34:42.389Z,14.00
2023-05-08T19:37:12.245Z,11.20
2023-05-08T19:39:39.140Z,14.40
2023-05-08T19:42:06.374Z,15.00
2023-05-08T19:44:33.224Z,13.40
2023-05-08T19:47:03.942Z,17.70
2023-05-08T19:49:51.302Z,19.30
2023-05-08T19:52:18.171Z,15.50
2023-05-08T19:54:47.765Z,16.30
2023-05-08T19:57:14.652Z,15.50
2023-05-08T19:59:41.523Z,14.70
2023-05-08T20:02:08.364Z,21.20
2023-05-08T20:04:54.470Z,9.40
2023-05-08T20:07:24.099Z,20.90
2023-05-08T20:09:51.284Z,15.60
2023-05-08T20:12:18.118Z,16.50
2023-05-08T20:14:44.878Z,10.20
2023-05-08T20:17:11.838Z,16.00
2023-05-08T20:19:38.732Z,17.80
2023-05-08T20:22:05.838Z,15.90
2023-05-08T20:24:32.637Z,23.10
2023-05-08T20:26:59.586Z,17.80
2023-05-08T20:29:26.616Z,17.40
2023-05-08T20:31:53.518Z,18.10
2023-05-08T20:34:21.907Z,21.90
2023-05-08T20:36:49.053Z,14.50
2023-05-08T20:39:15.894Z,16.20
2023-05-08T20:41:42.672Z,15.10
2023-05-08T20:44:09.615Z,16.80
2023-05-08T20:46:36.535Z,16.00
2023-05-08T20:49:04.163Z,21.00
2023-05-08T20:51:31.977Z,19.10
2023-05-08T20:53:58.746Z,14.10
2023-05-08T20:56:25.729Z,13.70
2023-05-08T20:58:52.561Z,19.20
2023-05-08T21:01:20.956Z,21.70
2023-05-08T21:03:48.375Z,22.50
2023-05-08T21:06:15.219Z,19.50
2023-05-08T21:08:42.062Z,15.60
2023-05-08T21:11:08.886Z,19.90
2023-05-08T21:13:35.751Z,16.50
2023-05-08T21:16:02.558Z,15.40
2023-05-08T21:18:29.336Z,16.10
2023-05-08T21:20:56.343Z,17.80
2023-05-08T21:23:23.289Z,20.40
2023-05-08T21:25:50.210Z,17.10
2023-05-08T21:28:17.097Z,18.60
2023-05-08T21:30:44.105Z,18.00
2023-05-08T21:33:13.798Z,15.10
2023-05-08T21:35:41.572Z,14.00
2023-05-08T21:38:08.638Z,20.40
2023-05-08T21:40:36.036Z,26.80
2023-05-08T21:43:02.893Z,27.60
2023-05-08T21:45:32.923Z,38.40
2023-05-08T21:48:00.011Z,33.70
2023-05-08T21:50:28.521Z,34.70
2023-05-08T21:52:56.613Z,30.10
2023-05-08T21:55:23.492Z,36.20
2023-05-08T21:57:50.301Z,32.50
2023-05-08T22:00:18.633Z,32.60
2023-05-08T22:02:48.578Z,34.70
2023-05-08T22:05:15.773Z,28.20
2023-05-08T22:07:42.940Z,33.60
2023-05-08T22:10:10.513Z,29.70
2023-05-08T22:12:37.393Z,23.50
2023-05-08T22:15:09.347Z,20.50
2023-05-08T22:17:40.311Z,22.60
2023-05-08T22:20:08.007Z,18.60
2023-05-08T22:22:34.728Z,20.10
2023-05-08T22:25:01.475Z,15.60
2023-05-08T22:27:28.282Z,11.90
2023-05-08T22:29:55.205Z,14.30
2023-05-08T22:32:22.038Z,14.40
2023-05-08T22:34:50.103Z,16.20
2023-05-08T22:37:17.690Z,15.20
2023-05-08T22:39:44.538Z,14.50
2023-05-08T22:42:11.782Z,13.20
2023-05-08T22:44:38.725Z,12.50
2023-05-08T22:47:05.688Z,18.00
2023-05-08T22:49:32.733Z,14.90
2023-05-08T22:51:59.665Z,14.60
2023-05-08T22:54:26.729Z,13.40
2023-05-08T22:56:53.501Z,15.70
2023-05-08T22:59:20.354Z,13.90
2023-05-08T23:01:47.223Z,12.40
2023-05-08T23:04:14.022Z,14.10
2023-05-08T23:06:40.806Z,17.00
2023-05-08T23:09:07.572Z,16.90
2023-05-08T23:11:34.482Z,16.50
2023-05-08T23:14:01.297Z,19.00
2023-05-08T23:16:28.185Z,20.10
2023-05-08T23:18:54.977Z,21.70
2023-05-08T23:21:21.757Z,20.80
2023-05-08T23:23:48.662Z,18.90
2023-05-08T23:26:15.460Z,23.20
2023-05-08T23:28:42.403Z,16.30
2023-05-08T23:31:09.295Z,20.00
2023-05-08T23:33:36.040Z,18.00
2023-05-08T23:36:02.790Z,14.20
2023-05-08T23:38:29.681Z,16.50
2023-05-08T23:40:56.544Z,21.00
2023-05-08T23:43:23.331Z,16.70
2023-05-08T23:45:50.114Z,18.50
2023-05-08T23:48:17.076Z,14.90
2023-05-08T23:50:43.964Z,13.10
2023-05-08T23:53:10.912Z,13.00
2023-05-08T23:55:38.077Z,15.40
2023-05-08T23:58:05.061Z,18.50
